sensor_id;sensor_type;location;lat;lon;timestamp;pressure;altitude;pressure_sealevel;temperature;humidity
72465;BME280;60471;52.150;4.508;2023-03-13T00:01:40;99804.56;;;9.88;90.44
72465;BME280;60471;52.150;4.508;2023-03-13T00:04:10;99809.03;;;9.86;90.83
72465;BME280;60471;52.150;4.508;2023-03-13T00:06:37;99781.59;;;9.90;90.83
72465;BME280;60471;52.150;4.508;2023-03-13T00:09:06;99773.00;;;9.86;91.25
72465;BME280;60471;52.150;4.508;2023-03-13T00:11:34;99767.66;;;9.88;91.67
72465;BME280;60471;52.150;4.508;2023-03-13T00:14:03;99766.03;;;9.85;91.71
72465;BME280;60471;52.150;4.508;2023-03-13T00:16:30;99763.06;;;9.77;92.11
72465;BME280;60471;52.150;4.508;2023-03-13T00:18:59;99788.16;;;9.83;92.26
72465;BME280;60471;52.150;4.508;2023-03-13T00:21:26;99739.78;;;9.84;92.91
72465;BME280;60471;52.150;4.508;2023-03-13T00:23:54;99739.88;;;9.97;92.48
72465;BME280;60471;52.150;4.508;2023-03-13T00:26:23;99740.72;;;9.97;92.34
72465;BME280;60471;52.150;4.508;2023-03-13T00:28:51;99732.38;;;9.91;92.84
72465;BME280;60471;52.150;4.508;2023-03-13T00:31:27;99717.84;;;9.98;92.91
72465;BME280;60471;52.150;4.508;2023-03-13T00:34:00;99713.25;;;10.01;92.92
72465;BME280;60471;52.150;4.508;2023-03-13T00:36:29;99712.94;;;10.06;92.88
72465;BME280;60471;52.150;4.508;2023-03-13T00:38:58;99715.97;;;10.00;92.96
72465;BME280;60471;52.150;4.508;2023-03-13T00:41:26;99668.97;;;10.06;93.23
72465;BME280;60471;52.150;4.508;2023-03-13T00:43:54;99728.47;;;10.25;92.44
72465;BME280;60471;52.150;4.508;2023-03-13T00:46:23;99694.66;;;10.17;92.64
72465;BME280;60471;52.150;4.508;2023-03-13T00:48:51;99681.88;;;10.11;92.99
72465;BME280;60471;52.150;4.508;2023-03-13T00:51:20;99660.97;;;10.22;93.23
72465;BME280;60471;52.150;4.508;2023-03-13T00:53:48;99671.31;;;10.25;92.76
72465;BME280;60471;52.150;4.508;2023-03-13T00:56:16;99668.56;;;10.27;92.90
72465;BME280;60471;52.150;4.508;2023-03-13T00:58:45;99637.56;;;10.30;93.14
72465;BME280;60471;52.150;4.508;2023-03-13T01:01:14;99653.94;;;10.35;92.93
72465;BME280;60471;52.150;4.508;2023-03-13T01:03:54;99647.94;;;10.33;93.18
72465;BME280;60471;52.150;4.508;2023-03-13T01:06:24;99645.31;;;10.33;93.34
72465;BME280;60471;52.150;4.508;2023-03-13T01:08:52;99645.31;;;10.33;93.28
72465;BME280;60471;52.150;4.508;2023-03-13T01:11:30;99632.53;;;10.40;93.82
72465;BME280;60471;52.150;4.508;2023-03-13T01:14:02;99607.78;;;10.42;93.08
72465;BME280;60471;52.150;4.508;2023-03-13T01:16:33;99606.41;;;10.50;93.30
72465;BME280;60471;52.150;4.508;2023-03-13T01:19:06;99603.47;;;10.54;93.31
72465;BME280;60471;52.150;4.508;2023-03-13T01:21:41;99612.13;;;10.56;93.04
72465;BME280;60471;52.150;4.508;2023-03-13T01:24:09;99675.53;;;10.55;92.96
72465;BME280;60471;52.150;4.508;2023-03-13T01:26:35;99625.31;;;10.69;93.09
72465;BME280;60471;52.150;4.508;2023-03-13T01:29:01;99581.94;;;10.60;93.00
72465;BME280;60471;52.150;4.508;2023-03-13T01:31:30;99585.63;;;10.70;93.02
72465;BME280;60471;52.150;4.508;2023-03-13T01:34:00;99582.25;;;10.81;92.80
72465;BME280;60471;52.150;4.508;2023-03-13T01:36:29;99586.59;;;10.69;93.71
72465;BME280;60471;52.150;4.508;2023-03-13T01:38:57;99571.81;;;10.80;93.70
72465;BME280;60471;52.150;4.508;2023-03-13T01:41:26;99578.88;;;10.66;94.35
72465;BME280;60471;52.150;4.508;2023-03-13T01:43:53;99573.19;;;10.72;94.43
72465;BME280;60471;52.150;4.508;2023-03-13T01:46:25;99532.75;;;10.72;94.74
72465;BME280;60471;52.150;4.508;2023-03-13T01:52:00;99554.81;;;10.84;94.83
72465;BME280;60471;52.150;4.508;2023-03-13T01:54:37;99534.63;;;10.95;94.40
72465;BME280;60471;52.150;4.508;2023-03-13T01:57:22;99522.84;;;10.88;94.65
72465;BME280;60471;52.150;4.508;2023-03-13T01:59:56;99525.38;;;10.90;94.84
72465;BME280;60471;52.150;4.508;2023-03-13T02:02:27;99517.22;;;10.93;95.22
72465;BME280;60471;52.150;4.508;2023-03-13T02:04:58;99505.22;;;10.89;95.54
72465;BME280;60471;52.150;4.508;2023-03-13T02:07:36;99509.97;;;10.96;94.80
72465;BME280;60471;52.150;4.508;2023-03-13T02:10:08;99530.84;;;10.99;94.67
72465;BME280;60471;52.150;4.508;2023-03-13T02:12:38;99516.28;;;10.94;95.36
72465;BME280;60471;52.150;4.508;2023-03-13T02:15:12;99493.78;;;11.01;95.39
72465;BME280;60471;52.150;4.508;2023-03-13T02:17:41;99505.59;;;10.95;96.01
72465;BME280;60471;52.150;4.508;2023-03-13T02:20:11;99472.56;;;11.02;95.79
72465;BME280;60471;52.150;4.508;2023-03-13T02:22:46;99480.47;;;11.02;95.98
72465;BME280;60471;52.150;4.508;2023-03-13T02:27:51;99509.16;;;11.20;95.66
72465;BME280;60471;52.150;4.508;2023-03-13T02:30:23;99480.38;;;11.28;95.45
72465;BME280;60471;52.150;4.508;2023-03-13T02:32:50;99468.13;;;11.27;95.55
72465;BME280;60471;52.150;4.508;2023-03-13T02:35:18;99476.69;;;11.30;95.70
72465;BME280;60471;52.150;4.508;2023-03-13T02:37:50;99474.31;;;11.39;95.15
72465;BME280;60471;52.150;4.508;2023-03-13T02:40:24;99478.25;;;11.33;95.27
72465;BME280;60471;52.150;4.508;2023-03-13T02:42:55;99467.03;;;11.42;94.76
72465;BME280;60471;52.150;4.508;2023-03-13T02:45:25;99506.53;;;11.44;94.96
72465;BME280;60471;52.150;4.508;2023-03-13T02:47:51;99482.22;;;11.51;95.01
72465;BME280;60471;52.150;4.508;2023-03-13T02:50:18;99475.00;;;11.53;94.75
72465;BME280;60471;52.150;4.508;2023-03-13T02:52:53;99476.69;;;11.54;94.56
72465;BME280;60471;52.150;4.508;2023-03-13T02:55:33;99465.47;;;11.64;94.34
72465;BME280;60471;52.150;4.508;2023-03-13T02:58:04;99517.81;;;11.70;93.67
72465;BME280;60471;52.150;4.508;2023-03-13T03:00:30;99431.16;;;11.75;92.96
72465;BME280;60471;52.150;4.508;2023-03-13T03:02:57;99478.47;;;11.78;92.91
72465;BME280;60471;52.150;4.508;2023-03-13T03:05:23;99563.13;;;11.89;92.30
72465;BME280;60471;52.150;4.508;2023-03-13T03:07:49;99483.47;;;11.94;91.99
72465;BME280;60471;52.150;4.508;2023-03-13T03:10:17;99456.00;;;11.96;91.79
72465;BME280;60471;52.150;4.508;2023-03-13T03:12:44;99448.28;;;12.04;91.28
72465;BME280;60471;52.150;4.508;2023-03-13T03:15:10;99425.84;;;11.99;90.99
72465;BME280;60471;52.150;4.508;2023-03-13T03:17:37;99468.72;;;12.02;90.97
72465;BME280;60471;52.150;4.508;2023-03-13T03:20:04;99419.72;;;12.09;90.89
72465;BME280;60471;52.150;4.508;2023-03-13T03:22:37;99443.16;;;12.14;90.64
72465;BME280;60471;52.150;4.508;2023-03-13T03:25:06;99426.94;;;12.18;90.38
72465;BME280;60471;52.150;4.508;2023-03-13T03:27:34;99519.13;;;12.12;90.88
72465;BME280;60471;52.150;4.508;2023-03-13T03:30:02;99495.31;;;12.12;91.12
72465;BME280;60471;52.150;4.508;2023-03-13T03:32:30;99417.78;;;12.11;91.13
72465;BME280;60471;52.150;4.508;2023-03-13T03:34:56;99427.41;;;12.12;91.40
72465;BME280;60471;52.150;4.508;2023-03-13T03:37:22;99438.34;;;12.08;91.93
72465;BME280;60471;52.150;4.508;2023-03-13T03:39:48;99472.97;;;12.05;92.36
72465;BME280;60471;52.150;4.508;2023-03-13T03:42:15;99440.03;;;12.09;92.07
72465;BME280;60471;52.150;4.508;2023-03-13T03:44:41;99446.41;;;12.06;92.45
72465;BME280;60471;52.150;4.508;2023-03-13T03:47:08;99428.22;;;12.02;92.95
72465;BME280;60471;52.150;4.508;2023-03-13T03:49:34;99457.69;;;12.08;92.70
72465;BME280;60471;52.150;4.508;2023-03-13T03:52:00;99407.22;;;12.11;92.72
72465;BME280;60471;52.150;4.508;2023-03-13T03:54:26;99394.25;;;12.08;92.78
72465;BME280;60471;52.150;4.508;2023-03-13T03:56:52;99435.94;;;12.05;92.87
72465;BME280;60471;52.150;4.508;2023-03-13T03:59:19;99428.63;;;12.08;93.19
72465;BME280;60471;52.150;4.508;2023-03-13T04:01:45;99412.38;;;12.02;93.81
72465;BME280;60471;52.150;4.508;2023-03-13T04:04:11;99405.78;;;12.07;93.65
72465;BME280;60471;52.150;4.508;2023-03-13T04:06:40;99397.13;;;12.05;94.03
72465;BME280;60471;52.150;4.508;2023-03-13T04:09:06;99405.91;;;12.06;93.86
72465;BME280;60471;52.150;4.508;2023-03-13T04:11:32;99389.28;;;12.04;94.20
72465;BME280;60471;52.150;4.508;2023-03-13T04:13:59;99419.72;;;12.09;93.95
72465;BME280;60471;52.150;4.508;2023-03-13T04:16:25;99391.00;;;12.05;94.32
72465;BME280;60471;52.150;4.508;2023-03-13T04:18:51;99408.19;;;12.10;94.23
72465;BME280;60471;52.150;4.508;2023-03-13T04:21:17;99400.13;;;12.12;94.21
72465;BME280;60471;52.150;4.508;2023-03-13T04:23:44;99396.16;;;12.06;94.20
72465;BME280;60471;52.150;4.508;2023-03-13T04:26:10;99419.47;;;12.12;93.61
72465;BME280;60471;52.150;4.508;2023-03-13T04:28:37;99395.34;;;12.17;93.26
72465;BME280;60471;52.150;4.508;2023-03-13T04:31:03;99378.25;;;12.21;92.55
72465;BME280;60471;52.150;4.508;2023-03-13T04:33:29;99404.84;;;12.19;92.52
72465;BME280;60471;52.150;4.508;2023-03-13T04:35:55;99399.41;;;12.21;92.08
72465;BME280;60471;52.150;4.508;2023-03-13T04:38:22;99341.72;;;12.26;91.56
72465;BME280;60471;52.150;4.508;2023-03-13T04:40:48;99358.91;;;12.32;91.22
72465;BME280;60471;52.150;4.508;2023-03-13T04:43:14;99386.44;;;12.29;90.96
72465;BME280;60471;52.150;4.508;2023-03-13T04:45:40;99351.34;;;12.38;90.93
72465;BME280;60471;52.150;4.508;2023-03-13T04:48:06;99485.63;;;12.35;90.79
72465;BME280;60471;52.150;4.508;2023-03-13T04:50:33;99374.41;;;12.36;90.51
72465;BME280;60471;52.150;4.508;2023-03-13T04:52:59;99482.25;;;12.33;90.49
72465;BME280;60471;52.150;4.508;2023-03-13T04:55:25;99341.59;;;12.39;89.77
72465;BME280;60471;52.150;4.508;2023-03-13T04:57:51;99357.59;;;12.37;90.12
72465;BME280;60471;52.150;4.508;2023-03-13T05:00:18;99336.53;;;12.36;89.90
72465;BME280;60471;52.150;4.508;2023-03-13T05:02:44;99361.69;;;12.41;89.48
72465;BME280;60471;52.150;4.508;2023-03-13T05:05:10;99366.38;;;12.38;89.17
72465;BME280;60471;52.150;4.508;2023-03-13T05:07:36;99319.59;;;12.38;88.87
72465;BME280;60471;52.150;4.508;2023-03-13T05:10:03;99377.31;;;12.44;88.20
72465;BME280;60471;52.150;4.508;2023-03-13T05:12:30;99321.13;;;12.52;87.25
72465;BME280;60471;52.150;4.508;2023-03-13T05:14:56;99325.22;;;12.45;87.20
72465;BME280;60471;52.150;4.508;2023-03-13T05:17:22;99300.69;;;12.54;86.32
72465;BME280;60471;52.150;4.508;2023-03-13T05:19:48;99314.16;;;12.51;85.56
72465;BME280;60471;52.150;4.508;2023-03-13T05:22:14;99284.81;;;12.54;84.69
72465;BME280;60471;52.150;4.508;2023-03-13T05:24:40;99301.03;;;12.61;83.79
72465;BME280;60471;52.150;4.508;2023-03-13T05:27:07;99320.75;;;12.57;83.40
72465;BME280;60471;52.150;4.508;2023-03-13T05:29:33;99324.03;;;12.60;82.28
72465;BME280;60471;52.150;4.508;2023-03-13T05:31:59;99320.72;;;12.68;81.32
72465;BME280;60471;52.150;4.508;2023-03-13T05:34:25;99306.22;;;12.62;81.89
72465;BME280;60471;52.150;4.508;2023-03-13T05:36:52;99328.53;;;12.69;80.85
72465;BME280;60471;52.150;4.508;2023-03-13T05:39:18;99304.81;;;12.79;80.57
72465;BME280;60471;52.150;4.508;2023-03-13T05:41:44;99290.97;;;12.87;80.22
72465;BME280;60471;52.150;4.508;2023-03-13T05:44:10;99330.19;;;12.93;79.63
72465;BME280;60471;52.150;4.508;2023-03-13T05:46:36;99411.31;;;12.83;79.84
72465;BME280;60471;52.150;4.508;2023-03-13T05:49:03;99250.88;;;12.91;79.34
72465;BME280;60471;52.150;4.508;2023-03-13T05:51:29;99273.50;;;12.95;79.17
72465;BME280;60471;52.150;4.508;2023-03-13T05:53:55;99320.31;;;12.95;78.83
72465;BME280;60471;52.150;4.508;2023-03-13T05:56:21;99336.06;;;12.96;78.77
72465;BME280;60471;52.150;4.508;2023-03-13T05:58:47;99405.97;;;13.05;78.34
72465;BME280;60471;52.150;4.508;2023-03-13T06:01:14;99342.66;;;13.02;78.68
72465;BME280;60471;52.150;4.508;2023-03-13T06:03:40;99276.84;;;12.97;79.40
72465;BME280;60471;52.150;4.508;2023-03-13T06:06:06;99295.69;;;12.83;80.37
72465;BME280;60471;52.150;4.508;2023-03-13T06:08:32;99312.06;;;12.77;80.89
72465;BME280;60471;52.150;4.508;2023-03-13T06:11:00;99426.84;;;12.76;81.28
72465;BME280;60471;52.150;4.508;2023-03-13T06:13:27;99364.66;;;12.70;81.82
72465;BME280;60471;52.150;4.508;2023-03-13T06:15:55;99334.69;;;12.59;83.02
72465;BME280;60471;52.150;4.508;2023-03-13T06:18:23;99266.56;;;12.51;84.06
72465;BME280;60471;52.150;4.508;2023-03-13T06:20:55;99309.03;;;12.27;86.32
72465;BME280;60471;52.150;4.508;2023-03-13T06:23:24;99303.75;;;12.05;88.44
72465;BME280;60471;52.150;4.508;2023-03-13T06:25:50;99355.88;;;11.92;89.74
72465;BME280;60471;52.150;4.508;2023-03-13T06:28:17;99321.84;;;11.76;90.71
72465;BME280;60471;52.150;4.508;2023-03-13T06:30:43;99317.56;;;11.97;90.10
72465;BME280;60471;52.150;4.508;2023-03-13T06:33:09;99397.69;;;11.86;90.02
72465;BME280;60471;52.150;4.508;2023-03-13T06:35:39;99361.16;;;11.92;89.93
72465;BME280;60471;52.150;4.508;2023-03-13T06:38:06;99349.41;;;11.96;89.67
72465;BME280;60471;52.150;4.508;2023-03-13T06:40:33;99333.31;;;11.99;89.91
72465;BME280;60471;52.150;4.508;2023-03-13T06:43:00;99301.84;;;12.07;90.00
72465;BME280;60471;52.150;4.508;2023-03-13T06:45:26;99353.38;;;12.01;90.58
72465;BME280;60471;52.150;4.508;2023-03-13T06:47:52;99306.03;;;11.98;91.24
72465;BME280;60471;52.150;4.508;2023-03-13T06:50:18;99314.09;;;11.97;91.61
72465;BME280;60471;52.150;4.508;2023-03-13T06:52:45;99351.22;;;11.95;91.75
72465;BME280;60471;52.150;4.508;2023-03-13T06:55:13;99380.28;;;11.95;91.59
72465;BME280;60471;52.150;4.508;2023-03-13T06:57:39;99346.91;;;11.94;91.90
72465;BME280;60471;52.150;4.508;2023-03-13T07:00:07;99305.19;;;12.09;90.85
72465;BME280;60471;52.150;4.508;2023-03-13T07:02:36;99309.38;;;12.11;90.71
72465;BME280;60471;52.150;4.508;2023-03-13T07:05:02;99300.16;;;12.17;90.16
72465;BME280;60471;52.150;4.508;2023-03-13T07:07:31;99352.41;;;12.13;90.27
72465;BME280;60471;52.150;4.508;2023-03-13T07:09:58;99328.47;;;12.26;90.27
72465;BME280;60471;52.150;4.508;2023-03-13T07:12:24;99304.81;;;12.13;90.85
72465;BME280;60471;52.150;4.508;2023-03-13T07:14:50;99326.22;;;12.10;91.18
72465;BME280;60471;52.150;4.508;2023-03-13T07:17:17;99379.47;;;12.17;90.89
72465;BME280;60471;52.150;4.508;2023-03-13T07:19:43;99319.84;;;12.24;90.18
72465;BME280;60471;52.150;4.508;2023-03-13T07:22:09;99289.06;;;12.23;90.44
72465;BME280;60471;52.150;4.508;2023-03-13T07:24:35;99351.09;;;12.19;90.63
72465;BME280;60471;52.150;4.508;2023-03-13T07:27:02;99297.13;;;12.33;89.65
72465;BME280;60471;52.150;4.508;2023-03-13T07:29:28;99297.94;;;12.33;89.17
72465;BME280;60471;52.150;4.508;2023-03-13T07:31:54;99260.44;;;12.39;87.92
72465;BME280;60471;52.150;4.508;2023-03-13T07:34:20;99416.84;;;12.46;87.12
72465;BME280;60471;52.150;4.508;2023-03-13T07:36:46;99386.19;;;12.55;86.20
72465;BME280;60471;52.150;4.508;2023-03-13T07:39:13;99352.38;;;12.58;85.85
72465;BME280;60471;52.150;4.508;2023-03-13T07:41:39;99339.78;;;12.62;85.16
72465;BME280;60471;52.150;4.508;2023-03-13T07:44:05;99405.44;;;12.57;85.45
72465;BME280;60471;52.150;4.508;2023-03-13T07:46:31;99320.72;;;12.79;84.71
72465;BME280;60471;52.150;4.508;2023-03-13T07:48:58;99358.59;;;12.80;84.32
72465;BME280;60471;52.150;4.508;2023-03-13T07:51:25;99290.59;;;12.91;83.54
72465;BME280;60471;52.150;4.508;2023-03-13T07:53:52;99272.19;;;12.90;83.20
72465;BME280;60471;52.150;4.508;2023-03-13T07:56:21;99342.09;;;12.87;83.63
72465;BME280;60471;52.150;4.508;2023-03-13T07:58:48;99309.50;;;12.87;83.33
72465;BME280;60471;52.150;4.508;2023-03-13T08:03:44;99269.88;;;12.96;83.27
72465;BME280;60471;52.150;4.508;2023-03-13T08:06:13;99338.22;;;12.91;82.91
72465;BME280;60471;52.150;4.508;2023-03-13T08:08:44;99294.19;;;12.90;82.66
72465;BME280;60471;52.150;4.508;2023-03-13T08:11:13;99346.66;;;12.96;82.63
72465;BME280;60471;52.150;4.508;2023-03-13T08:13:42;99269.78;;;12.87;83.10
72465;BME280;60471;52.150;4.508;2023-03-13T08:18:40;99276.34;;;12.71;84.47
72465;BME280;60471;52.150;4.508;2023-03-13T08:21:11;99348.66;;;12.72;84.23
72465;BME280;60471;52.150;4.508;2023-03-13T08:23:39;99438.00;;;12.80;82.50
72465;BME280;60471;52.150;4.508;2023-03-13T08:26:09;99263.75;;;12.96;82.24
72465;BME280;60471;52.150;4.508;2023-03-13T08:28:37;99541.16;;;13.03;81.46
72465;BME280;60471;52.150;4.508;2023-03-13T08:33:39;99267.84;;;13.21;78.74
72465;BME280;60471;52.150;4.508;2023-03-13T08:36:10;99237.56;;;13.34;77.79
72465;BME280;60471;52.150;4.508;2023-03-13T08:38:38;99244.66;;;13.34;77.95
72465;BME280;60471;52.150;4.508;2023-03-13T08:41:07;99256.22;;;13.54;76.84
72465;BME280;60471;52.150;4.508;2023-03-13T08:43:33;99226.78;;;13.47;76.93
72465;BME280;60471;52.150;4.508;2023-03-13T08:46:00;99325.44;;;13.60;75.68
72465;BME280;60471;52.150;4.508;2023-03-13T08:48:26;99358.53;;;13.66;73.42
72465;BME280;60471;52.150;4.508;2023-03-13T08:51:19;99258.75;;;13.86;71.31
72465;BME280;60471;52.150;4.508;2023-03-13T08:53:47;99297.13;;;14.12;69.77
72465;BME280;60471;52.150;4.508;2023-03-13T08:56:17;99280.31;;;14.02;67.51
72465;BME280;60471;52.150;4.508;2023-03-13T08:58:53;99364.59;;;13.99;67.65
72465;BME280;60471;52.150;4.508;2023-03-13T09:01:22;99191.28;;;14.09;67.21
72465;BME280;60471;52.150;4.508;2023-03-13T09:03:50;99290.69;;;14.15;67.65
72465;BME280;60471;52.150;4.508;2023-03-13T09:06:18;99278.75;;;14.00;67.79
72465;BME280;60471;52.150;4.508;2023-03-13T09:08:45;99264.88;;;14.17;68.05
72465;BME280;60471;52.150;4.508;2023-03-13T09:11:14;99147.34;;;14.26;67.19
72465;BME280;60471;52.150;4.508;2023-03-13T09:13:44;99380.00;;;14.05;67.72
72465;BME280;60471;52.150;4.508;2023-03-13T09:16:15;99183.88;;;14.03;67.20
72465;BME280;60471;52.150;4.508;2023-03-13T09:18:43;99261.91;;;14.10;66.53
72465;BME280;60471;52.150;4.508;2023-03-13T09:21:15;99219.38;;;14.12;66.66
72465;BME280;60471;52.150;4.508;2023-03-13T09:23:44;99369.59;;;14.13;66.69
72465;BME280;60471;52.150;4.508;2023-03-13T09:26:10;99172.31;;;14.14;67.49
72465;BME280;60471;52.150;4.508;2023-03-13T09:28:37;99237.19;;;14.00;68.18
72465;BME280;60471;52.150;4.508;2023-03-13T09:31:10;99141.59;;;14.21;68.29
72465;BME280;60471;52.150;4.508;2023-03-13T09:33:42;99242.53;;;14.19;68.99
72465;BME280;60471;52.150;4.508;2023-03-13T09:36:10;99183.06;;;14.32;69.01
72465;BME280;60471;52.150;4.508;2023-03-13T09:38:38;99165.69;;;14.58;68.15
72465;BME280;60471;52.150;4.508;2023-03-13T09:41:26;99177.69;;;14.82;67.27
72465;BME280;60471;52.150;4.508;2023-03-13T09:52:15;99189.97;;;14.92;66.50
72465;BME280;60471;52.150;4.508;2023-03-13T09:55:03;99142.69;;;15.05;66.34
72465;BME280;60471;52.150;4.508;2023-03-13T09:57:59;99203.69;;;14.68;67.50
72465;BME280;60471;52.150;4.508;2023-03-13T10:00:54;99135.16;;;15.01;66.88
72465;BME280;60471;52.150;4.508;2023-03-13T10:03:38;99199.91;;;14.90;67.40
72465;BME280;60471;52.150;4.508;2023-03-13T10:06:14;99151.22;;;15.56;65.44
72465;BME280;60471;52.150;4.508;2023-03-13T10:08:45;99161.03;;;15.46;65.05
72465;BME280;60471;52.150;4.508;2023-03-13T10:16:55;99188.50;;;15.36;63.13
72465;BME280;60471;52.150;4.508;2023-03-13T10:19:33;99143.38;;;15.91;61.71
72465;BME280;60471;52.150;4.508;2023-03-13T10:22:10;99141.56;;;15.55;62.13
72465;BME280;60471;52.150;4.508;2023-03-13T10:27:54;99344.03;;;15.41;60.39
72465;BME280;60471;52.150;4.508;2023-03-13T10:30:31;99189.94;;;15.21;58.98
72465;BME280;60471;52.150;4.508;2023-03-13T10:35:33;99162.84;;;15.55;58.91
72465;BME280;60471;52.150;4.508;2023-03-13T10:38:09;99223.34;;;15.80;58.30
72465;BME280;60471;52.150;4.508;2023-03-13T10:40:38;99197.53;;;15.53;59.03
72465;BME280;60471;52.150;4.508;2023-03-13T10:43:13;99212.41;;;15.36;60.47
72465;BME280;60471;52.150;4.508;2023-03-13T10:45:43;99102.88;;;16.33;58.03
72465;BME280;60471;52.150;4.508;2023-03-13T10:48:21;99172.34;;;16.40;57.23
72465;BME280;60471;52.150;4.508;2023-03-13T10:50:53;99138.84;;;15.74;58.50
72465;BME280;60471;52.150;4.508;2023-03-13T10:53:32;99246.09;;;15.55;59.29
72465;BME280;60471;52.150;4.508;2023-03-13T10:58:49;99242.25;;;15.87;59.00
72465;BME280;60471;52.150;4.508;2023-03-13T11:01:21;99187.59;;;15.65;58.18
72465;BME280;60471;52.150;4.508;2023-03-13T11:03:57;99160.56;;;15.70;56.89
72465;BME280;60471;52.150;4.508;2023-03-13T11:06:31;99140.75;;;16.80;52.73
72465;BME280;60471;52.150;4.508;2023-03-13T11:09:10;99266.28;;;16.95;51.76
72465;BME280;60471;52.150;4.508;2023-03-13T11:11:48;99229.28;;;16.29;53.86
72465;BME280;60471;52.150;4.508;2023-03-13T11:14:20;99178.00;;;17.16;50.78
72465;BME280;60471;52.150;4.508;2023-03-13T11:17:14;99212.94;;;16.42;51.63
72465;BME280;60471;52.150;4.508;2023-03-13T11:26:25;99344.91;;;17.53;48.56
72465;BME280;60471;52.150;4.508;2023-03-13T11:29:11;99355.81;;;17.06;50.18
72465;BME280;60471;52.150;4.508;2023-03-13T11:31:56;99132.78;;;17.66;49.38
72465;BME280;60471;52.150;4.508;2023-03-13T11:34:41;99222.75;;;16.59;51.71
72465;BME280;60471;52.150;4.508;2023-03-13T11:37:14;99258.75;;;16.45;50.83
72465;BME280;60471;52.150;4.508;2023-03-13T11:56:43;99134.66;;;15.34;54.38
72465;BME280;60471;52.150;4.508;2023-03-13T11:59:24;99222.34;;;15.44;54.04
72465;BME280;60471;52.150;4.508;2023-03-13T12:02:12;99146.84;;;15.27;53.95
72465;BME280;60471;52.150;4.508;2023-03-13T12:04:57;99136.94;;;15.20;54.51
72465;BME280;60471;52.150;4.508;2023-03-13T12:10:15;99174.47;;;15.63;52.85
72465;BME280;60471;52.150;4.508;2023-03-13T12:12:50;99178.00;;;15.35;54.39
72465;BME280;60471;52.150;4.508;2023-03-13T12:15:44;99156.94;;;17.05;50.56
72465;BME280;60471;52.150;4.508;2023-03-13T12:18:19;99285.63;;;17.15;49.84
72465;BME280;60471;52.150;4.508;2023-03-13T12:21:08;99120.66;;;17.38;49.65
72465;BME280;60471;52.150;4.508;2023-03-13T12:26:46;99177.88;;;17.52;50.13
72465;BME280;60471;52.150;4.508;2023-03-13T12:29:46;99178.78;;;17.60;50.27
72465;BME280;60471;52.150;4.508;2023-03-13T12:37:51;99117.19;;;16.50;49.57
72465;BME280;60471;52.150;4.508;2023-03-13T12:40:33;99063.69;;;17.81;46.26
72465;BME280;60471;52.150;4.508;2023-03-13T12:43:13;99105.97;;;18.43;42.97
72465;BME280;60471;52.150;4.508;2023-03-13T12:48:45;99065.91;;;18.83;42.92
72465;BME280;60471;52.150;4.508;2023-03-13T12:53:55;99083.28;;;19.59;41.84
72465;BME280;60471;52.150;4.508;2023-03-13T12:59:40;99157.06;;;18.48;43.64
72465;BME280;60471;52.150;4.508;2023-03-13T13:02:17;99096.91;;;18.11;44.44
72465;BME280;60471;52.150;4.508;2023-03-13T13:04:48;99100.28;;;18.54;43.04
72465;BME280;60471;52.150;4.508;2023-03-13T13:07:28;99042.06;;;19.29;41.63
72465;BME280;60471;52.150;4.508;2023-03-13T13:13:16;99069.75;;;18.48;42.94
72465;BME280;60471;52.150;4.508;2023-03-13T13:15:47;99199.53;;;18.09;44.17
72465;BME280;60471;52.150;4.508;2023-03-13T13:18:32;99062.59;;;18.81;43.34
72465;BME280;60471;52.150;4.508;2023-03-13T13:23:40;99100.31;;;18.95;43.18
72465;BME280;60471;52.150;4.508;2023-03-13T13:28:57;99028.94;;;17.23;46.83
72465;BME280;60471;52.150;4.508;2023-03-13T13:37:00;99082.22;;;17.49;46.02
72465;BME280;60471;52.150;4.508;2023-03-13T13:41:53;99057.56;;;18.13;44.04
72465;BME280;60471;52.150;4.508;2023-03-13T13:44:23;99103.28;;;18.27;43.13
72465;BME280;60471;52.150;4.508;2023-03-13T13:46:52;99047.97;;;17.78;43.89
72465;BME280;60471;52.150;4.508;2023-03-13T13:49:21;99078.59;;;18.41;42.77
72465;BME280;60471;52.150;4.508;2023-03-13T13:57:14;99162.75;;;17.86;43.24
72465;BME280;60471;52.150;4.508;2023-03-13T13:59:48;99132.06;;;17.56;43.41
72465;BME280;60471;52.150;4.508;2023-03-13T14:02:19;99093.59;;;18.09;42.18
72465;BME280;60471;52.150;4.508;2023-03-13T14:04:50;99056.06;;;18.76;40.48
72465;BME280;60471;52.150;4.508;2023-03-13T14:07:27;98970.53;;;18.92;39.77
72465;BME280;60471;52.150;4.508;2023-03-13T14:10:05;98979.72;;;18.90;39.68
72465;BME280;60471;52.150;4.508;2023-03-13T14:13:00;99259.53;;;19.30;38.82
72465;BME280;60471;52.150;4.508;2023-03-13T14:15:30;99055.22;;;18.75;39.79
72465;BME280;60471;52.150;4.508;2023-03-13T14:18:07;99039.66;;;17.73;41.99
72465;BME280;60471;52.150;4.508;2023-03-13T14:20:39;99169.53;;;18.23;41.29
72465;BME280;60471;52.150;4.508;2023-03-13T14:25:58;98950.63;;;18.15;41.38
72465;BME280;60471;52.150;4.508;2023-03-13T14:28:41;99074.75;;;18.51;40.92
72465;BME280;60471;52.150;4.508;2023-03-13T14:31:41;99163.94;;;17.92;42.26
72465;BME280;60471;52.150;4.508;2023-03-13T14:34:10;99132.88;;;18.49;40.82
72465;BME280;60471;52.150;4.508;2023-03-13T14:36:53;99153.66;;;18.21;41.31
72465;BME280;60471;52.150;4.508;2023-03-13T14:42:12;99138.72;;;17.52;43.34
72465;BME280;60471;52.150;4.508;2023-03-13T14:44:42;98951.44;;;17.99;42.21
72465;BME280;60471;52.150;4.508;2023-03-13T14:47:29;98944.69;;;19.16;40.29
72465;BME280;60471;52.150;4.508;2023-03-13T14:49:57;99098.69;;;17.86;42.76
72465;BME280;60471;52.150;4.508;2023-03-13T14:52:27;99053.22;;;18.04;42.97
72465;BME280;60471;52.150;4.508;2023-03-13T14:55:04;98979.78;;;18.33;42.26
72465;BME280;60471;52.150;4.508;2023-03-13T15:00:47;99072.72;;;16.86;46.45
72465;BME280;60471;52.150;4.508;2023-03-13T15:08:34;99004.16;;;17.30;45.07
72465;BME280;60471;52.150;4.508;2023-03-13T15:13:56;98927.56;;;17.49;44.74
72465;BME280;60471;52.150;4.508;2023-03-13T15:16:24;99104.06;;;17.18;44.53